Air Quality Table

TIMESTAMP NO2 SO2 PM10 PM2.5 TEMP HUM AIRPRES WS WD NO
2022-12-08 09:00 43.78 µg/m3 2.3 µg/m3 32.69 µg/m3 15.22 µg/m3 15.2 °C 91.22 % 1,010.96 mbar 1.77 m/s 214.86 Deg 20.65 µg/m3
2022-12-08 01:00 45.35 µg/m3 2.19 µg/m3 96.94 µg/m3 48.04 µg/m3 16.66 °C 89.28 % 1,009.99 mbar 1.44 m/s 237.74 Deg 31.77 µg/m3
2022-12-07 17:00 20.46 µg/m3 1.45 µg/m3 96.88 µg/m3 24.9 µg/m3 19.47 °C 74.14 % 1,009.37 mbar 1.09 m/s 304.94 Deg 5.78 µg/m3
2022-12-07 09:00 42.89 µg/m3 1.6 µg/m3 28.01 µg/m3 12.11 µg/m3 18.22 °C 79.19 % 1,009.92 mbar 2.69 m/s 208.85 Deg 22.41 µg/m3
2022-12-07 01:00 39.24 µg/m3 1.75 µg/m3 37.29 µg/m3 16.58 µg/m3 18.43 °C 83.62 % 1,011.48 mbar 1.53 m/s 175.67 Deg 7.96 µg/m3
2022-12-06 17:00 57.27 µg/m3 4.05 µg/m3 53.07 µg/m3 20.77 µg/m3 18.47 °C 82.56 % 1,014.05 mbar 2.14 m/s 184.98 Deg 91.65 µg/m3
2022-12-06 09:00 42.65 µg/m3 3.75 µg/m3 43.06 µg/m3 20.41 µg/m3 13.34 °C 95.97 % 1,016.59 mbar 1.8 m/s 206.69 Deg 83.43 µg/m3
2022-12-06 01:00 51.74 µg/m3 3.69 µg/m3 49.92 µg/m3 23.92 µg/m3 15.16 °C 88.91 % 1,018.77 mbar 1.13 m/s 209.55 Deg 54.06 µg/m3
2022-12-05 17:00 35.11 µg/m3 2.72 µg/m3 62.08 µg/m3 18.08 µg/m3 18.59 °C 74.34 % 1,019.43 mbar 0.64 m/s 191.81 Deg 37.06 µg/m3
2022-12-05 09:00 42.05 µg/m3 3.64 µg/m3 38.66 µg/m3 18.08 µg/m3 13.19 °C 89.64 % 1,018.93 mbar 2.03 m/s 206.05 Deg 52.75 µg/m3
2022-12-05 01:00 51.96 µg/m3 2.21 µg/m3 44.87 µg/m3 18.83 µg/m3 15.78 °C 83.13 % 1,017.62 mbar 1.68 m/s 206.72 Deg 24.83 µg/m3
2022-12-04 17:00 19 µg/m3 1.33 µg/m3 46.94 µg/m3 15.91 µg/m3 18.97 °C 70.2 % 1,014.98 mbar 3.86 m/s 209.92 Deg 12.45 µg/m3
2022-12-04 09:00 47.15 µg/m3 1.77 µg/m3 40.01 µg/m3 16.4 µg/m3 15.03 °C 81.38 % 1,012.74 mbar 1.43 m/s 193.5 Deg 26.43 µg/m3
2022-12-04 01:00 56.07 µg/m3 2.2 µg/m3 68 µg/m3 24.05 µg/m3 19.31 °C 75.76 % 1,010.66 mbar 3.67 m/s 187.01 Deg 76.62 µg/m3
2022-12-03 17:00 29.29 µg/m3 0.96 µg/m3 54.58 µg/m3 18.43 µg/m3 20.66 °C 75.67 % 1,009.35 mbar 2.61 m/s 174.47 Deg 22.77 µg/m3
2022-12-03 09:00 7.1 µg/m3 0.61 µg/m3 45.63 µg/m3 13.67 µg/m3 18.08 °C 75.21 % 1,011.56 mbar 0.8 m/s 215.83 Deg 1.1 µg/m3
2022-12-03 01:00 16.37 µg/m3 0.75 µg/m3 26.81 µg/m3 8.53 µg/m3 16.66 °C 79.1 % 1,013.75 mbar 0.49 m/s 157.6 Deg 1.08 µg/m3
2022-12-02 17:00 25.07 µg/m3 1.74 µg/m3 22.97 µg/m3 7.7 µg/m3 17.13 °C 78.24 % 1,015.07 mbar 0.88 m/s 179.82 Deg 6.46 µg/m3
2022-12-02 09:00 47.88 µg/m3 4.07 µg/m3 33.67 µg/m3 16.56 µg/m3 12.09 °C 90.37 % 1,015.79 mbar 1.84 m/s 207.55 Deg 94.12 µg/m3
2022-12-02 01:00 55.88 µg/m3 2.6 µg/m3 38.17 µg/m3 17.1 µg/m3 13.76 °C 82 % 1,015.06 mbar 2.15 m/s 213.09 Deg 34.49 µg/m3
2022-12-01 17:00 17.36 µg/m3 1.8 µg/m3 20.93 µg/m3 7.06 µg/m3 17.11 °C 62.49 % 1,012.73 mbar 2.23 m/s 288.54 Deg 4.83 µg/m3
2022-12-01 09:00 38.17 µg/m3 1.71 µg/m3 18.18 µg/m3 6.3 µg/m3 14.28 °C 77.02 % 1,010.15 mbar 2.13 m/s 222.25 Deg 21.76 µg/m3
2022-12-01 01:00 46.31 µg/m3 1.3 µg/m3 15.12 µg/m3 5.76 µg/m3 13.79 °C 77.78 % 1,008.02 mbar 2.7 m/s 213.65 Deg 7.85 µg/m3
2022-11-30 17:00 56.98 µg/m3 2.01 µg/m3 15.22 µg/m3 5.71 µg/m3 14.09 °C 75.19 % 1,005.87 mbar 3.43 m/s 225.87 Deg 39.2 µg/m3
2022-11-30 09:00 57.53 µg/m3 1.23 µg/m3 18.95 µg/m3 9 µg/m3 12.82 °C 90.28 % 1,005.30 mbar 1.96 m/s 218.33 Deg 31.63 µg/m3
2022-11-30 01:00 33.36 µg/m3 2.72 µg/m3 17.85 µg/m3 7.95 µg/m3 13.6 °C 87.43 % 1,004.99 mbar 2.11 m/s 226.53 Deg 5.25 µg/m3
2022-11-29 17:00 20.75 µg/m3 2.43 µg/m3 17.48 µg/m3 7.35 µg/m3 15.03 °C 83.06 % 1,005.00 mbar 1.09 m/s 243.36 Deg 3.8 µg/m3
2022-11-29 09:00 11.4 µg/m3 1.62 µg/m3 16.49 µg/m3 6.95 µg/m3 14.42 °C 78.32 % 1,007.75 mbar 0.87 m/s 148.5 Deg 1.03 µg/m3
2022-11-29 01:00 26.19 µg/m3 1.85 µg/m3 30.91 µg/m3 9.9 µg/m3 15.69 °C 67.34 % 1,011.70 mbar 0.29 m/s 215.2 Deg 3.65 µg/m3
2022-11-28 17:00 11.28 µg/m3 2.08 µg/m3 35.04 µg/m3 8.82 µg/m3 17.15 °C 63.16 % 1,013.63 mbar 1.06 m/s 225.53 Deg 5.88 µg/m3
2022-11-28 09:00 5.64 µg/m3 0.99 µg/m3 29.23 µg/m3 9.89 µg/m3 16.62 °C 71.3 % 1,014.29 mbar 2.14 m/s 230.08 Deg 0.95 µg/m3
2022-11-28 01:00 1.87 µg/m3 0.55 µg/m3 21.97 µg/m3 10.43 µg/m3 16.57 °C 81.08 % 1,012.30 mbar 4 m/s 233.22 Deg 0.5 µg/m3
2022-11-27 17:00 4.01 µg/m3 0.65 µg/m3 15.08 µg/m3 7.08 µg/m3 17.04 °C 88.26 % 1,006.68 mbar 4.92 m/s 179.77 Deg 1.19 µg/m3
2022-11-27 09:00 0.15 µg/m3 -1.03 µg/m3 13.01 µg/m3 5.29 µg/m3 16.32 °C 85.67 % 1,003.85 mbar 3.5 m/s 309.27 Deg 0.93 µg/m3
2022-11-27 01:00 11.53 µg/m3 -0.64 µg/m3 12.42 µg/m3 4.89 µg/m3 16.07 °C 81.97 % 1,006.15 mbar 2.29 m/s 284.42 Deg 3.25 µg/m3
2022-11-26 17:00 -2.43 µg/m3 0.73 µg/m3 16.03 µg/m3 7.04 µg/m3 16.06 °C 88.12 % 1,010.67 mbar 2.2 m/s 255.81 Deg 6.44 µg/m3
2022-11-26 09:00 36.09 µg/m3 0.91 µg/m3 22.4 µg/m3 10.18 µg/m3 17.74 °C 82.32 % 1,013.97 mbar 1.9 m/s 189.63 Deg 12.52 µg/m3
2022-11-26 01:00 57.78 µg/m3 2.1 µg/m3 45.54 µg/m3 20.22 µg/m3 16.35 °C 79.27 % 1,017.95 mbar 1.57 m/s 224.46 Deg 36.66 µg/m3
2022-11-25 17:00 11.24 µg/m3 0.54 µg/m3 27.21 µg/m3 7.98 µg/m3 18.92 °C 63.28 % 1,018.55 mbar 1.56 m/s 314.75 Deg 6.7 µg/m3
2022-11-25 09:00 43.95 µg/m3 1.26 µg/m3 26.02 µg/m3 10.96 µg/m3 16.61 °C 78.87 % 1,017.62 mbar 1.95 m/s 224.87 Deg 25.47 µg/m3
2022-11-25 01:00 22.14 µg/m3 -0.08 µg/m3 26.06 µg/m3 11.85 µg/m3 17.88 °C 76.78 % 1,015.45 mbar 3.14 m/s 256.98 Deg 3.35 µg/m3
2022-11-24 17:00 10.84 µg/m3 -0.1 µg/m3 20.56 µg/m3 7.79 µg/m3 19.55 °C 71.38 % 1,012.99 mbar 5.39 m/s 268.36 Deg 4.49 µg/m3
2022-11-24 09:00 11.48 µg/m3 -0.14 µg/m3 30.96 µg/m3 15.96 µg/m3 18.82 °C 85.68 % 1,010.29 mbar 4.24 m/s 264.73 Deg 3.9 µg/m3
2022-11-24 01:00 14.44 µg/m3 -0.4 µg/m3 12.35 µg/m3 5.25 µg/m3 18.4 °C 81.78 % 1,009.09 mbar 5.8 m/s 239.37 Deg 4.3 µg/m3
2022-11-23 17:00 13.18 µg/m3 -1.14 µg/m3 13.1 µg/m3 5.19 µg/m3 18.84 °C 65.14 % 1,007.88 mbar 7.88 m/s 239.55 Deg 7.42 µg/m3
2022-11-23 09:00 20.14 µg/m3 0.61 µg/m3 16.08 µg/m3 6.52 µg/m3 16.58 °C 65.31 % 1,008.25 mbar 4.71 m/s 240.25 Deg 7.32 µg/m3
2022-11-23 01:00 10.1 µg/m3 -0.22 µg/m3 13.5 µg/m3 5.49 µg/m3 17.24 °C 59.97 % 1,009.07 mbar 6.47 m/s 242.2 Deg 1.99 µg/m3
2022-11-22 17:00 14.17 µg/m3 0.01 µg/m3 20.27 µg/m3 6.8 µg/m3 19.17 °C 62.89 % 1,006.64 mbar 11.42 m/s 228.35 Deg 4.97 µg/m3
2022-11-22 09:00 31.38 µg/m3 0.86 µg/m3 17.06 µg/m3 6.42 µg/m3 18.91 °C 58.62 % 1,009.49 mbar 9.07 m/s 205.5 Deg 12.06 µg/m3
2022-11-22 01:00 47.78 µg/m3 1.15 µg/m3 15.22 µg/m3 5.74 µg/m3 18.05 °C 66.16 % 1,014.28 mbar 4.16 m/s 213.08 Deg 17.64 µg/m3
2022-11-21 17:00 17.14 µg/m3 0.7 µg/m3 16.59 µg/m3 6.21 µg/m3 17.42 °C 72.23 % 1,014.98 mbar 4.38 m/s 264.88 Deg 5.84 µg/m3
2022-11-21 09:00 8.38 µg/m3 -0.32 µg/m3 16.59 µg/m3 6.22 µg/m3 16.7 °C 67.4 % 1,013.43 mbar 4.04 m/s 259.64 Deg 2.31 µg/m3
2022-11-21 01:00 2.33 µg/m3 -0.74 µg/m3 15.21 µg/m3 5.94 µg/m3 17.61 °C 64.04 % 1,011.04 mbar 5.2 m/s 255.79 Deg 0.7 µg/m3
2022-11-20 17:00 9.9 µg/m3 -1.47 µg/m3 15.27 µg/m3 5.43 µg/m3 16.28 °C 75.54 % 1,007.40 mbar 6.07 m/s 244.14 Deg 5.74 µg/m3
2022-11-20 09:00 26.16 µg/m3 -0.85 µg/m3 45.97 µg/m3 15.89 µg/m3 19.34 °C 74.47 % 1,006.29 mbar 2.82 m/s 237.44 Deg 8.98 µg/m3
2022-11-20 01:00 20.13 µg/m3 -0.41 µg/m3 63.54 µg/m3 21.33 µg/m3 22.01 °C 74.68 % 1,007.44 mbar 4.11 m/s 231.85 Deg 8.23 µg/m3
2022-11-19 17:00 24.4 µg/m3 -0.43 µg/m3 29.11 µg/m3 11.4 µg/m3 23.23 °C 77.27 % 1,007.17 mbar 5.59 m/s 196.23 Deg 18.37 µg/m3
2022-11-19 09:00 46.54 µg/m3 0.03 µg/m3 39.56 µg/m3 18.61 µg/m3 21.12 °C 86.99 % 1,007.93 mbar 2.84 m/s 180.24 Deg 36.15 µg/m3
2022-11-19 01:00 34.6 µg/m3 -0.01 µg/m3 29.59 µg/m3 13.5 µg/m3 21.05 °C 83.82 % 1,009.08 mbar 3.01 m/s 206.27 Deg 13.59 µg/m3
2022-11-18 17:00 10.95 µg/m3 -0.43 µg/m3 18.63 µg/m3 7 µg/m3 23.13 °C 69.9 % 1,008.34 mbar 7.62 m/s 226.35 Deg 3.82 µg/m3
2022-11-18 09:00 28.14 µg/m3 -0.33 µg/m3 µg/m3 µg/m3 20.86 °C 79.13 % 1,007.94 mbar 4.77 m/s 219.48 Deg 7.61 µg/m3
2022-11-18 01:00 36.36 µg/m3 -0.24 µg/m3 µg/m3 µg/m3 20.01 °C 79.29 % 1,008.32 mbar 2.47 m/s 222.47 Deg 4.76 µg/m3
2022-11-17 17:00 21.18 µg/m3 -0.27 µg/m3 19.92 µg/m3 7.84 µg/m3 21.43 °C 73.68 % 1,006.95 mbar 5.29 m/s 224.5 Deg 10.29 µg/m3
2022-11-17 09:00 53.37 µg/m3 1.56 µg/m3 31.51 µg/m3 14.65 µg/m3 18.15 °C 86.33 % 1,006.48 mbar 1.89 m/s 203.64 Deg 56.73 µg/m3
2022-11-17 01:00 57.9 µg/m3 0.95 µg/m3 30.86 µg/m3 13.25 µg/m3 19.82 °C 82 % 1,007.33 mbar 2.15 m/s 207.03 Deg 25.95 µg/m3
2022-11-16 17:00 35.32 µg/m3 1.06 µg/m3 28.57 µg/m3 10.96 µg/m3 22.78 °C 65.29 % 1,008.77 mbar 5.58 m/s 206.83 Deg 41.22 µg/m3
2022-11-16 09:00 51.37 µg/m3 0.92 µg/m3 18.23 µg/m3 7.18 µg/m3 20.83 °C 72.3 % 1,011.91 mbar 2.77 m/s 182.06 Deg 41.16 µg/m3
2022-11-16 01:00 64.75 µg/m3 0.86 µg/m3 27 µg/m3 10.32 µg/m3 20.17 °C 75.78 % 1,015.42 mbar 1.56 m/s 193.72 Deg 55.47 µg/m3
2022-11-15 17:00 17.19 µg/m3 0.49 µg/m3 19.51 µg/m3 7.43 µg/m3 21.88 °C 67.99 % 1,017.32 mbar 3.97 m/s 207.36 Deg 6.11 µg/m3
2022-11-15 09:00 53.29 µg/m3 2.25 µg/m3 32.6 µg/m3 16.23 µg/m3 16.45 °C 93.13 % 1,018.68 mbar 1.65 m/s 200.37 Deg 86.51 µg/m3
2022-11-15 01:00 65.96 µg/m3 3.54 µg/m3 31.78 µg/m3 14.56 µg/m3 18.38 °C 86.84 % 1,019.74 mbar 1.74 m/s 205.93 Deg 72.52 µg/m3
2022-11-14 17:00 34.15 µg/m3 1.06 µg/m3 20.96 µg/m3 7.76 µg/m3 19.66 °C 78.68 % 1,020.12 mbar 0.95 m/s 214.85 Deg 13.12 µg/m3
2022-11-14 09:00 52.05 µg/m3 3.59 µg/m3 16.48 µg/m3 7.14 µg/m3 19.14 °C 83.35 % 1,019.34 mbar 1.08 m/s 167.95 Deg 16.48 µg/m3
2022-11-14 01:00 55.17 µg/m3 3.93 µg/m3 30.49 µg/m3 13.69 µg/m3 18.59 °C 82.82 % 1,019.67 mbar 0.94 m/s 192.31 Deg 44.53 µg/m3
2022-11-13 17:00 26.95 µg/m3 3.65 µg/m3 22.02 µg/m3 7.9 µg/m3 20.44 °C 72.67 % 1,018.80 mbar 0.54 m/s 189.58 Deg 8.99 µg/m3
2022-11-13 09:00 30.07 µg/m3 3.08 µg/m3 15.27 µg/m3 6.9 µg/m3 17.28 °C 89.21 % 1,017.21 mbar 1.06 m/s 250.33 Deg 17.34 µg/m3
2022-11-13 01:00 26.9 µg/m3 2.51 µg/m3 14.91 µg/m3 7.53 µg/m3 16.85 °C 92.78 % 1,018.20 mbar 1.56 m/s 210.68 Deg 1.7 µg/m3
2022-11-12 17:00 24.52 µg/m3 3.6 µg/m3 25.37 µg/m3 10.83 µg/m3 19.13 °C 80.21 % 1,021.11 mbar 1.09 m/s 223.82 Deg 3.75 µg/m3
2022-11-12 09:00 27.63 µg/m3 2.45 µg/m3 25.74 µg/m3 9.32 µg/m3 19.7 °C 73.47 % 1,023.12 mbar 0.7 m/s 260.1 Deg 10.58 µg/m3
2022-11-12 01:00 17.04 µg/m3 1.97 µg/m3 17.61 µg/m3 6.36 µg/m3 20.38 °C 73.65 % 1,024.50 mbar 0.88 m/s 233.8 Deg 0.8 µg/m3
2022-11-11 17:00 14.49 µg/m3 2.71 µg/m3 17.48 µg/m3 4.13 µg/m3 21.47 °C 66.37 % 1,024.45 mbar 0.92 m/s 191.25 Deg 1.94 µg/m3
2022-11-11 09:00 45.84 µg/m3 2.65 µg/m3 24.31 µg/m3 11.54 µg/m3 16.94 °C 85.18 % 1,023.52 mbar 1.6 m/s 197.61 Deg 48.81 µg/m3
2022-11-11 01:00 46.39 µg/m3 3.03 µg/m3 29.5 µg/m3 11.78 µg/m3 18.65 °C 77.12 % 1,022.23 mbar 1.26 m/s 198.7 Deg 26.42 µg/m3
2022-11-10 17:00 18.21 µg/m3 3.72 µg/m3 25.64 µg/m3 5.36 µg/m3 21.97 °C 65.05 % 1,020.19 mbar 0.59 m/s 255.47 Deg 6.22 µg/m3
2022-11-10 09:00 52.06 µg/m3 6.01 µg/m3 28.57 µg/m3 13.63 µg/m3 16.3 °C 87.11 % 1,018.79 mbar 1.78 m/s 208.29 Deg 90.4 µg/m3
2022-11-10 01:00 56.04 µg/m3 4.41 µg/m3 40.16 µg/m3 14.13 µg/m3 18.32 °C 73.99 % 1,018.74 mbar 1.2 m/s 201.82 Deg 56.05 µg/m3
2022-11-09 17:00 35.29 µg/m3 4.26 µg/m3 24.91 µg/m3 6.46 µg/m3 21.85 °C 60.56 % 1,019.16 mbar 0.95 m/s 202.79 Deg 16.55 µg/m3
2022-11-09 09:00 62.41 µg/m3 6.06 µg/m3 32.56 µg/m3 15.26 µg/m3 15.68 °C 83.14 % 1,019.19 mbar 1.9 m/s 203.1 Deg 111.91 µg/m3
2022-11-09 01:00 55.65 µg/m3 4.3 µg/m3 33.13 µg/m3 14.36 µg/m3 17.96 °C 77.55 % 1,019.18 mbar 1.93 m/s 213.71 Deg 45.38 µg/m3

It is to be noted that the data is provisional and subject to quality assurance procedures. For validated data kindly refer your request to contact.air@era.org.mt